createdAt,value
2022-09-12T00:02:03.404Z,101915.53
2022-09-12T00:04:30.438Z,101910.03
2022-09-12T00:06:57.331Z,101902.69
2022-09-12T00:09:24.270Z,101917.41
2022-09-12T00:11:51.172Z,101908.00
2022-09-12T00:14:19.188Z,101902.78
2022-09-12T00:16:46.854Z,101907.78
2022-09-12T00:19:14.052Z,101898.13
2022-09-12T00:21:41.870Z,101892.88
2022-09-12T00:24:09.836Z,101891.31
2022-09-12T00:26:36.944Z,101890.78
2022-09-12T00:29:04.139Z,101888.16
2022-09-12T00:31:30.982Z,101883.22
2022-09-12T00:34:00.970Z,101879.78
2022-09-12T00:36:29.023Z,101880.59
2022-09-12T00:38:56.086Z,101879.00
2022-09-12T00:41:35.451Z,101878.25
2022-09-12T00:44:12.597Z,101881.91
2022-09-12T00:46:45.274Z,101871.72
2022-09-12T00:49:14.270Z,101872.75
2022-09-12T00:51:47.772Z,101876.72
2022-09-12T00:54:17.479Z,101873.34
2022-09-12T00:56:46.456Z,101868.94
2022-09-12T00:59:27.665Z,101864.78
2022-09-12T01:01:55.199Z,101875.53
2022-09-12T01:04:24.371Z,101871.34
2022-09-12T01:06:52.947Z,101870.31
2022-09-12T01:09:23.222Z,101866.97
2022-09-12T01:11:51.892Z,101875.91
2022-09-12T01:14:20.706Z,101866.75
2022-09-12T01:16:50.303Z,101866.75
2022-09-12T01:19:46.491Z,101863.91
2022-09-12T01:22:32.689Z,101862.34
2022-09-12T01:25:28.764Z,101864.19
2022-09-12T01:28:32.835Z,101863.69
2022-09-12T01:31:07.509Z,101857.13
2022-09-12T01:33:34.348Z,101855.31
2022-09-12T01:36:07.600Z,101855.84
2022-09-12T01:38:46.968Z,101852.72
2022-09-12T01:41:22.941Z,101843.28
2022-09-12T01:43:59.615Z,101842.50
2022-09-12T01:47:05.633Z,101845.94
2022-09-12T01:49:37.596Z,101842.81
2022-09-12T01:52:26.249Z,101837.56
2022-09-12T01:55:11.626Z,101834.44
2022-09-12T01:57:54.224Z,101833.66
2022-09-12T02:00:21.288Z,101836.03
2022-09-12T02:02:58.125Z,101823.75
2022-09-12T02:05:36.226Z,101816.94
2022-09-12T02:08:15.713Z,101817.19
2022-09-12T02:10:56.341Z,101813.56
2022-09-12T02:13:33.314Z,101812.00
2022-09-12T02:16:08.129Z,101806.25
2022-09-12T02:18:40.766Z,101806.25
2022-09-12T02:21:08.487Z,101808.63
2022-09-12T02:23:40.116Z,101810.47
2022-09-12T02:26:16.815Z,101808.63
2022-09-12T02:28:44.319Z,101810.22
2022-09-12T02:31:19.052Z,101802.13
2022-09-12T02:34:03.673Z,101796.88
2022-09-12T02:36:43.615Z,101803.19
2022-09-12T02:39:10.450Z,101798.72
2022-09-12T02:41:37.766Z,101796.09
2022-09-12T02:44:06.079Z,101792.91
2022-09-12T02:46:42.766Z,101792.41
2022-09-12T02:49:09.868Z,101791.63
2022-09-12T02:51:37.640Z,101787.97
2022-09-12T02:54:06.621Z,101784.28
2022-09-12T02:56:33.987Z,101783.28
2022-09-12T02:59:08.231Z,101785.94
2022-09-12T03:01:50.574Z,101782.81
2022-09-12T03:04:46.686Z,101776.53
2022-09-12T03:07:22.785Z,101781.78
2022-09-12T03:10:18.726Z,101777.03
2022-09-12T03:12:48.176Z,101766.31
2022-09-12T03:15:32.277Z,101767.66
2022-09-12T03:18:11.860Z,101767.66
2022-09-12T03:21:01.606Z,101765.03
2022-09-12T03:23:34.176Z,101768.97
2022-09-12T03:26:16.534Z,101771.84
2022-09-12T03:28:45.530Z,101766.38
2022-09-12T03:31:20.008Z,101768.47
2022-09-12T03:33:47.257Z,101770.06
2022-09-12T03:36:22.602Z,101767.97
2022-09-12T03:38:49.755Z,101771.13
2022-09-12T03:41:16.592Z,101767.72
2022-09-12T03:43:43.331Z,101760.16
2022-09-12T03:46:10.261Z,101761.97
2022-09-12T03:48:37.337Z,101770.88
2022-09-12T03:51:10.213Z,101753.09
2022-09-12T03:53:37.220Z,101757.28
2022-09-12T03:56:09.995Z,101755.69
2022-09-12T03:58:37.808Z,101754.94
2022-09-12T04:01:15.707Z,101747.34
2022-09-12T04:03:48.284Z,101744.72
2022-09-12T04:06:17.331Z,101748.66
2022-09-12T04:08:47.915Z,101738.97
2022-09-12T04:11:15.737Z,101732.44
2022-09-12T04:13:44.825Z,101729.00
2022-09-12T04:16:13.453Z,101736.88
2022-09-12T04:18:40.570Z,101738.19
2022-09-12T04:21:13.503Z,101745.28
2022-09-12T04:23:40.548Z,101749.44
2022-09-12T04:26:07.906Z,101745.78
2022-09-12T04:28:37.067Z,101741.31
2022-09-12T04:31:25.716Z,101746.81
2022-09-12T04:34:00.793Z,101746.03
2022-09-12T04:36:29.274Z,101744.19
2022-09-12T04:38:56.285Z,101742.09
2022-09-12T04:41:26.302Z,101743.69
2022-09-12T04:43:55.492Z,101739.75
2022-09-12T04:46:22.444Z,101738.97
2022-09-12T04:48:53.270Z,101739.22
2022-09-12T04:51:43.375Z,101741.59
2022-09-12T04:54:16.769Z,101737.94
2022-09-12T04:56:45.702Z,101741.06
2022-09-12T04:59:14.445Z,101735.56
2022-09-12T05:01:41.857Z,101738.69
2022-09-12T05:04:11.157Z,101739.97
2022-09-12T05:06:39.345Z,101736.81
2022-09-12T05:09:08.363Z,101732.09
2022-09-12T05:12:02.650Z,101734.94
2022-09-12T05:14:25.013Z,101737.56
2022-09-12T05:16:51.870Z,101729.41
2022-09-12T05:19:18.887Z,101729.91
2022-09-12T05:21:45.734Z,101734.63
2022-09-12T05:24:12.798Z,101744.06
2022-09-12T05:26:39.629Z,101737.75
2022-09-12T05:29:07.375Z,101743.50
2022-09-12T05:31:35.085Z,101730.94
2022-09-12T05:34:04.720Z,101730.94
2022-09-12T05:36:31.605Z,101740.09
2022-09-12T05:39:00.322Z,101729.63
2022-09-12T05:41:31.094Z,101726.72
2022-09-12T05:44:03.768Z,101723.28
2022-09-12T05:46:33.115Z,101733.22
2022-09-12T05:49:04.772Z,101733.47
2022-09-12T05:51:38.399Z,101733.47
2022-09-12T05:54:07.823Z,101725.31
2022-09-12T05:56:39.524Z,101724.78
2022-09-12T05:59:12.104Z,101728.19
2022-09-12T06:01:39.037Z,101729.75
2022-09-12T06:04:07.222Z,101726.06
2022-09-12T06:06:38.023Z,101731.31
2022-09-12T06:09:05.774Z,101734.44
2022-09-12T06:11:34.870Z,101726.59
2022-09-12T06:14:02.182Z,101725.28
2022-09-12T06:16:31.822Z,101728.66
2022-09-12T06:19:01.143Z,101735.47
2022-09-12T06:21:29.070Z,101737.53
2022-09-12T06:23:56.063Z,101725.72
2022-09-12T06:26:25.820Z,101731.97
2022-09-12T06:28:54.943Z,101731.72
2022-09-12T06:31:25.454Z,101730.38
2022-09-12T06:33:53.672Z,101735.59
2022-09-12T06:36:27.202Z,101741.06
2022-09-12T06:39:10.229Z,101733.72
2022-09-12T06:41:40.477Z,101736.75
2022-09-12T06:44:16.326Z,101735.28
2022-09-12T06:46:43.492Z,101732.81
2022-09-12T06:49:11.001Z,101728.34
2022-09-12T06:51:37.995Z,101721.75
2022-09-12T06:54:05.571Z,101725.94
2022-09-12T06:56:32.499Z,101725.06
2022-09-12T06:59:00.048Z,101722.81
2022-09-12T07:01:29.224Z,101715.09
2022-09-12T07:04:01.131Z,101704.97
2022-09-12T07:06:36.434Z,101712.56
2022-09-12T07:09:04.946Z,101711.22
2022-09-12T07:11:34.551Z,101715.38
2022-09-12T07:14:03.667Z,101709.09
2022-09-12T07:16:31.190Z,101718.78
2022-09-12T07:19:01.384Z,101710.09
2022-09-12T07:21:28.955Z,101716.06
2022-09-12T07:23:58.041Z,101721.13
2022-09-12T07:26:27.537Z,101724.53
2022-09-12T07:29:07.854Z,101719.69
2022-09-12T07:31:40.411Z,101724.94
2022-09-12T07:34:07.484Z,101716.13
2022-09-12T07:36:35.201Z,101719.00
2022-09-12T07:39:02.132Z,101714.38
2022-09-12T07:41:32.107Z,101714.81
2022-09-12T07:44:00.428Z,101716.09
2022-09-12T07:46:32.094Z,101720.19
2022-09-12T07:49:00.631Z,101724.44
2022-09-12T07:51:28.843Z,101720.75
2022-09-12T07:53:56.747Z,101713.41
2022-09-12T07:56:29.341Z,101720.03
2022-09-12T07:58:57.909Z,101726.00
2022-09-12T08:01:24.931Z,101725.25
2022-09-12T08:03:57.464Z,101718.44
2022-09-12T08:06:25.289Z,101717.53
2022-09-12T08:08:54.457Z,101716.16
2022-09-12T08:11:22.642Z,101716.00
2022-09-12T08:13:55.329Z,101718.16
2022-09-12T08:16:24.988Z,101718.34
2022-09-12T08:18:52.280Z,101722.03
2022-09-12T08:21:24.447Z,101718.72
2022-09-12T08:23:56.650Z,101732.84
2022-09-12T08:26:24.660Z,101729.19
2022-09-12T08:28:51.540Z,101724.47
2022-09-12T08:31:20.218Z,101727.25
2022-09-12T08:33:47.278Z,101722.84
2022-09-12T08:36:22.859Z,101718.31
2022-09-12T08:38:53.679Z,101725.69
2022-09-12T08:41:28.330Z,101721.72
2022-09-12T08:44:13.306Z,101724.97
2022-09-12T08:47:08.072Z,101727.81
2022-09-12T08:49:42.068Z,101719.97
2022-09-12T08:52:26.558Z,101725.19
2022-09-12T08:54:55.096Z,101735.09
2022-09-12T08:57:24.218Z,101732.69
2022-09-12T08:59:53.194Z,101729.44
2022-09-12T09:02:48.059Z,101721.97
2022-09-12T09:05:36.233Z,101714.47
2022-09-12T09:08:24.038Z,101715.50
2022-09-12T09:11:02.719Z,101707.09
2022-09-12T09:14:05.949Z,101704.25
2022-09-12T09:16:37.299Z,101700.38
2022-09-12T09:19:28.917Z,101708.22
2022-09-12T09:21:58.651Z,101703.00
2022-09-12T09:24:33.887Z,101698.31
2022-09-12T09:27:47.444Z,101697.53
2022-09-12T09:30:17.821Z,101691.44
2022-09-12T09:32:49.789Z,101696.94
2022-09-12T09:35:27.187Z,101691.41
2022-09-12T09:38:17.441Z,101692.28
2022-09-12T09:41:39.743Z,101699.13
2022-09-12T09:46:34.674Z,101696.22
2022-09-12T09:49:05.867Z,101700.88
2022-09-12T09:51:39.564Z,101700.19
2022-09-12T09:54:23.712Z,101690.41
2022-09-12T09:56:50.896Z,101693.59
2022-09-12T09:59:21.003Z,101692.06
2022-09-12T10:01:52.416Z,101677.94
2022-09-12T10:04:25.418Z,101680.34
2022-09-12T10:06:54.916Z,101674.34
2022-09-12T10:09:26.210Z,101676.00
2022-09-12T10:11:54.995Z,101679.00
2022-09-12T10:14:39.862Z,101674.44
2022-09-12T10:17:34.174Z,101666.97
2022-09-12T10:20:21.462Z,101655.75
2022-09-12T10:22:49.781Z,101658.72
2022-09-12T10:25:19.940Z,101656.47
2022-09-12T10:27:53.741Z,101660.16
2022-09-12T10:30:24.826Z,101650.75
2022-09-12T10:32:52.135Z,101646.00
2022-09-12T10:35:22.889Z,101652.16
2022-09-12T10:37:57.864Z,101647.25
2022-09-12T10:40:27.983Z,101648.09
2022-09-12T10:42:57.780Z,101641.78
2022-09-12T10:45:36.195Z,101635.56
2022-09-12T10:48:28.995Z,101638.16
2022-09-12T10:50:57.080Z,101633.06
2022-09-12T10:53:40.593Z,101621.84
2022-09-12T10:56:13.409Z,101625.50
2022-09-12T10:58:51.202Z,101621.41
2022-09-12T11:02:00.255Z,101619.44
2022-09-12T11:04:58.157Z,101619.75
2022-09-12T11:07:44.057Z,101618.91
2022-09-12T11:10:23.047Z,101622.91
2022-09-12T11:13:32.054Z,101623.84
2022-09-12T11:16:16.131Z,101621.97
2022-09-12T11:18:55.444Z,101622.59
2022-09-12T11:21:45.194Z,101616.09
2022-09-12T11:24:18.886Z,101614.41
2022-09-12T11:26:51.512Z,101617.16
2022-09-12T11:29:49.218Z,101612.25
2022-09-12T11:32:35.532Z,101607.94
2022-09-12T11:35:26.512Z,101609.69
2022-09-12T11:38:15.075Z,101616.56
2022-09-12T11:40:54.567Z,101615.50
2022-09-12T11:43:43.281Z,101610.59
2022-09-12T11:46:17.297Z,101607.25
2022-09-12T11:49:05.791Z,101609.16
2022-09-12T11:51:41.674Z,101603.75
2022-09-12T11:54:32.952Z,101607.25
2022-09-12T11:57:08.597Z,101608.69
2022-09-12T11:59:37.934Z,101601.16
2022-09-12T12:02:12.446Z,101606.81
2022-09-12T12:04:52.590Z,101595.88
2022-09-12T12:07:19.682Z,101593.59
2022-09-12T12:09:52.143Z,101592.16
2022-09-12T12:12:25.757Z,101592.13
2022-09-12T12:14:55.768Z,101587.50
2022-09-12T12:17:24.975Z,101585.34
2022-09-12T12:20:07.649Z,101582.34
2022-09-12T12:22:36.075Z,101573.97
2022-09-12T12:25:05.811Z,101578.16
2022-09-12T12:27:46.721Z,101584.41
2022-09-12T12:30:32.019Z,101588.56
2022-09-12T12:33:13.179Z,101580.84
2022-09-12T12:35:43.626Z,101574.78
2022-09-12T12:38:26.927Z,101574.47
2022-09-12T12:40:54.531Z,101572.22
2022-09-12T12:43:32.281Z,101570.28
2022-09-12T12:46:03.493Z,101564.63
2022-09-12T12:48:35.493Z,101561.53
2022-09-12T12:51:23.979Z,101555.38
2022-09-12T12:53:52.365Z,101551.53
2022-09-12T12:56:38.144Z,101541.19
2022-09-12T12:59:20.790Z,101543.88
2022-09-12T13:01:55.488Z,101535.06
2022-09-12T13:04:26.392Z,101535.03
2022-09-12T13:07:07.867Z,101533.56
2022-09-12T13:09:44.749Z,101536.59
2022-09-12T13:12:34.110Z,101529.38
2022-09-12T13:15:02.663Z,101527.53
2022-09-12T13:17:40.840Z,101524.50
2022-09-12T13:20:29.558Z,101519.16
2022-09-12T13:22:58.257Z,101503.50
2022-09-12T13:25:32.541Z,101505.47
2022-09-12T13:28:07.234Z,101497.44
2022-09-12T13:30:36.873Z,101496.25
2022-09-12T13:33:21.618Z,101492.81
2022-09-12T13:36:23.718Z,101495.94
2022-09-12T13:39:09.020Z,101499.72
2022-09-12T13:41:57.937Z,101490.81
2022-09-12T13:44:26.743Z,101497.69
2022-09-12T13:46:54.208Z,101488.34
2022-09-12T13:49:37.283Z,101476.81
2022-09-12T13:52:08.482Z,101492.91
2022-09-12T13:54:39.064Z,101473.81
2022-09-12T13:57:06.558Z,101481.03
2022-09-12T13:59:41.149Z,101480.63
2022-09-12T14:02:21.357Z,101477.56
2022-09-12T14:05:08.992Z,101474.16
2022-09-12T14:08:00.628Z,101471.91
2022-09-12T14:10:33.319Z,101476.56
2022-09-12T14:13:02.951Z,101464.78
2022-09-12T14:15:34.455Z,101471.22
2022-09-12T14:18:03.850Z,101464.31
2022-09-12T14:20:36.463Z,101466.94
2022-09-12T14:23:23.550Z,101458.91
2022-09-12T14:25:52.299Z,101463.06
2022-09-12T14:28:23.564Z,101461.53
2022-09-12T14:31:01.809Z,101453.47
2022-09-12T14:33:32.299Z,101443.13
2022-09-12T14:36:12.622Z,101438.84
2022-09-12T14:38:49.816Z,101434.97
2022-09-12T14:41:41.541Z,101430.28
2022-09-12T14:44:16.663Z,101425.00
2022-09-12T14:46:45.006Z,101417.78
2022-09-12T14:49:20.207Z,101413.97
2022-09-12T14:51:52.995Z,101423.16
2022-09-12T14:54:28.597Z,101424.72
2022-09-12T14:57:01.116Z,101421.25
2022-09-12T14:59:35.904Z,101408.16
2022-09-12T15:02:22.533Z,101408.81
2022-09-12T15:05:26.021Z,101406.84
2022-09-12T15:08:01.338Z,101409.41
2022-09-12T15:10:35.872Z,101411.22
2022-09-12T15:13:14.236Z,101420.00
2022-09-12T15:15:46.543Z,101416.16
2022-09-12T15:18:15.079Z,101416.44
2022-09-12T15:20:44.450Z,101423.88
2022-09-12T15:23:41.308Z,101410.44
2022-09-12T15:26:11.564Z,101414.22
2022-09-12T15:28:38.612Z,101414.97
2022-09-12T15:31:28.535Z,101400.38
2022-09-12T15:33:57.247Z,101406.41
2022-09-12T15:36:27.517Z,101402.53
2022-09-12T15:38:54.823Z,101395.28
2022-09-12T15:41:34.116Z,101401.38
2022-09-12T15:44:01.467Z,101396.69
2022-09-12T15:46:28.740Z,101393.91
2022-09-12T15:48:55.971Z,101388.47
2022-09-12T15:51:23.117Z,101384.97
2022-09-12T15:53:51.245Z,101383.41
2022-09-12T15:56:21.355Z,101377.28
2022-09-12T15:58:58.651Z,101372.03
2022-09-12T16:01:27.652Z,101372.81
2022-09-12T16:03:54.809Z,101368.97
2022-09-12T16:06:22.508Z,101374.16
2022-09-12T16:08:49.828Z,101365.69
2022-09-12T16:11:25.310Z,101369.00
2022-09-12T16:13:54.151Z,101365.44
2022-09-12T16:16:22.867Z,101350.00
2022-09-12T16:18:49.803Z,101351.34
2022-09-12T16:21:16.687Z,101354.63
2022-09-12T16:23:44.650Z,101351.84
2022-09-12T16:26:11.752Z,101348.63
2022-09-12T16:28:39.221Z,101347.81
2022-09-12T16:31:08.230Z,101354.84
2022-09-12T16:33:35.451Z,101346.81
2022-09-12T16:36:08.239Z,101343.69
2022-09-12T16:38:35.964Z,101333.72
2022-09-12T16:41:07.294Z,101341.19
2022-09-12T16:43:35.559Z,101338.13
2022-09-12T16:46:05.255Z,101336.16
2022-09-12T16:48:33.820Z,101340.22
2022-09-12T16:51:03.541Z,101343.19
2022-09-12T16:53:35.014Z,101335.91
2022-09-12T16:56:02.059Z,101331.25
2022-09-12T16:58:32.921Z,101328.19
2022-09-12T17:01:05.559Z,101325.81
2022-09-12T17:03:32.861Z,101318.50
2022-09-12T17:06:11.412Z,101312.31
2022-09-12T17:08:40.617Z,101301.88
2022-09-12T17:11:13.609Z,101303.28
2022-09-12T17:14:03.363Z,101302.03
2022-09-12T17:16:28.904Z,101301.47
2022-09-12T17:18:56.249Z,101291.78
2022-09-12T17:21:23.500Z,101296.22
2022-09-12T17:23:50.554Z,101303.69
2022-09-12T17:26:17.663Z,101287.59
2022-09-12T17:28:44.541Z,101282.16
2022-09-12T17:31:13.258Z,101281.19
2022-09-12T17:33:41.045Z,101280.69
2022-09-12T17:36:11.319Z,101286.53
2022-09-12T17:38:39.873Z,101294.78
2022-09-12T17:41:17.826Z,101292.75
2022-09-12T17:43:46.554Z,101297.91
2022-09-12T17:46:13.869Z,101314.09
2022-09-12T17:48:41.019Z,101297.97
2022-09-12T17:51:16.536Z,101309.56
2022-09-12T17:53:43.825Z,101306.41
2022-09-12T17:56:11.794Z,101304.66
2022-09-12T17:58:38.605Z,101300.31
2022-09-12T18:01:32.825Z,101287.94
2022-09-12T18:04:01.075Z,101287.78
2022-09-12T18:06:32.612Z,101284.16
2022-09-12T18:09:01.778Z,101284.78
2022-09-12T18:11:29.295Z,101280.03
2022-09-12T18:13:57.672Z,101284.03
2022-09-12T18:16:24.572Z,101287.97
2022-09-12T18:18:51.731Z,101294.28
2022-09-12T18:21:19.919Z,101300.63
2022-09-12T18:23:47.573Z,101299.75
2022-09-12T18:26:14.520Z,101300.75
2022-09-12T18:28:44.014Z,101307.75
2022-09-12T18:31:16.826Z,101303.00
2022-09-12T18:33:44.258Z,101308.84
2022-09-12T18:36:13.568Z,101311.28
2022-09-12T18:38:41.488Z,101306.88
2022-09-12T18:41:17.051Z,101309.34
2022-09-12T18:43:44.380Z,101315.63
2022-09-12T18:46:16.691Z,101298.78
2022-09-12T18:48:45.175Z,101302.41
2022-09-12T18:51:20.631Z,101301.88
2022-09-12T18:53:56.454Z,101301.31
2022-09-12T18:56:25.385Z,101299.66
2022-09-12T18:58:56.955Z,101290.38
2022-09-12T19:01:30.011Z,101295.91
2022-09-12T19:03:57.919Z,101291.94
2022-09-12T19:06:27.050Z,101282.34
2022-09-12T19:08:55.649Z,101279.91
2022-09-12T19:11:23.641Z,101266.09
2022-09-12T19:13:52.172Z,101268.97
2022-09-12T19:16:21.923Z,101271.06
2022-09-12T19:18:49.998Z,101268.16
2022-09-12T19:21:25.311Z,101266.19
2022-09-12T19:23:54.032Z,101260.00
2022-09-12T19:26:21.954Z,101259.44
2022-09-12T19:28:49.264Z,101252.16
2022-09-12T19:31:22.041Z,101251.94
2022-09-12T19:33:49.954Z,101251.03
2022-09-12T19:36:43.872Z,101240.47
2022-09-12T19:39:08.848Z,101242.66
2022-09-12T19:41:36.299Z,101251.69
2022-09-12T19:44:04.562Z,101255.31
2022-09-12T19:46:31.878Z,101250.78
2022-09-12T19:48:58.832Z,101252.34
2022-09-12T19:51:26.069Z,101258.72
2022-09-12T19:53:53.831Z,101269.63
2022-09-12T19:56:21.219Z,101265.13
2022-09-12T19:58:55.057Z,101269.31
2022-09-12T20:01:25.922Z,101272.28
2022-09-12T20:03:54.031Z,101262.81
2022-09-12T20:06:21.282Z,101266.09
2022-09-12T20:08:48.475Z,101254.28
2022-09-12T20:11:19.361Z,101257.16
2022-09-12T20:13:46.405Z,101254.06
2022-09-12T20:16:20.541Z,101250.94
2022-09-12T20:18:52.206Z,101236.84
2022-09-12T20:21:21.994Z,101233.75
2022-09-12T20:23:49.368Z,101233.31
2022-09-12T20:26:16.238Z,101243.44
2022-09-12T20:28:43.249Z,101241.44
2022-09-12T20:31:16.153Z,101221.38
2022-09-12T20:33:43.746Z,101218.66
2022-09-12T20:36:17.290Z,101235.91
2022-09-12T20:38:52.541Z,101236.88
2022-09-12T20:41:21.070Z,101233.31
2022-09-12T20:43:55.900Z,101234.75
2022-09-12T20:46:24.020Z,101233.50
2022-09-12T20:48:51.895Z,101236.03
2022-09-12T20:51:20.166Z,101238.25
2022-09-12T20:53:48.018Z,101241.50
2022-09-12T20:56:15.253Z,101246.81
2022-09-12T20:58:44.390Z,101245.28
2022-09-12T21:01:13.838Z,101244.03
2022-09-12T21:03:42.629Z,101242.94
2022-09-12T21:06:11.016Z,101240.31
2022-09-12T21:08:37.963Z,101247.13
2022-09-12T21:11:05.880Z,101243.72
2022-09-12T21:13:33.239Z,101242.03
2022-09-12T21:16:21.207Z,101222.97
2022-09-12T21:18:52.724Z,101218.75
2022-09-12T21:21:19.504Z,101216.47
2022-09-12T21:23:46.354Z,101220.94
2022-09-12T21:26:13.203Z,101216.31
2022-09-12T21:28:40.035Z,101214.00
2022-09-12T21:31:06.972Z,101209.03
2022-09-12T21:33:33.831Z,101224.88
2022-09-12T21:36:07.425Z,101231.72
2022-09-12T21:38:34.986Z,101237.00
2022-09-12T21:41:13.221Z,101240.28
2022-09-12T21:43:40.928Z,101234.09
2022-09-12T21:46:08.531Z,101233.66
2022-09-12T21:48:36.098Z,101230.69
2022-09-12T21:51:03.848Z,101233.34
2022-09-12T21:53:31.268Z,101229.16
2022-09-12T21:56:07.332Z,101233.66
2022-09-12T21:58:34.783Z,101230.09
2022-09-12T22:01:02.320Z,101230.31
2022-09-12T22:03:29.798Z,101231.38
2022-09-12T22:05:58.413Z,101231.38
2022-09-12T22:08:25.422Z,101233.72
2022-09-12T22:10:52.226Z,101237.56
2022-09-12T22:13:19.182Z,101227.00
2022-09-12T22:15:51.424Z,101235.69
2022-09-12T22:18:18.336Z,101234.47
2022-09-12T22:20:46.256Z,101229.50
2022-09-12T22:23:36.533Z,101237.78
2022-09-12T22:26:03.648Z,101232.50
2022-09-12T22:28:32.281Z,101231.25
2022-09-12T22:30:59.757Z,101229.06
2022-09-12T22:33:26.793Z,101224.56
2022-09-12T22:35:53.795Z,101226.09
2022-09-12T22:38:20.584Z,101217.09
2022-09-12T22:40:47.421Z,101214.91
2022-09-12T22:43:14.238Z,101203.09
2022-09-12T22:45:42.293Z,101211.38
2022-09-12T22:48:09.495Z,101210.47
2022-09-12T22:50:36.396Z,101215.28
2022-09-12T22:53:03.290Z,101208.31
2022-09-12T22:55:30.220Z,101206.78
2022-09-12T22:57:57.128Z,101209.72
2022-09-12T23:00:23.969Z,101199.16
2022-09-12T23:02:50.919Z,101192.00
2022-09-12T23:05:17.708Z,101188.59
2022-09-12T23:07:44.548Z,101187.06
2022-09-12T23:10:11.598Z,101177.28
2022-09-12T23:12:38.395Z,101173.88
2022-09-12T23:15:05.795Z,101169.66
2022-09-12T23:17:34.982Z,101170.66
2022-09-12T23:20:02.403Z,101177.00
2022-09-12T23:22:29.150Z,101167.22
2022-09-12T23:24:56.031Z,101177.78
2022-09-12T23:27:23.341Z,101174.50
2022-09-12T23:29:52.500Z,101168.47
2022-09-12T23:32:21.121Z,101179.78
2022-09-12T23:34:48.596Z,101171.41
2022-09-12T23:37:15.888Z,101168.00
2022-09-12T23:39:42.739Z,101158.84
2022-09-12T23:42:09.635Z,101163.66
2022-09-12T23:44:36.359Z,101159.50
2022-09-12T23:47:03.360Z,101150.66
2022-09-12T23:49:30.363Z,101154.06
2022-09-12T23:51:57.260Z,101161.22
2022-09-12T23:54:25.225Z,101154.84
2022-09-12T23:56:52.371Z,101144.63
2022-09-12T23:59:19.226Z,101134.06
